Terminal Aerodrome Forecast
Issued by NWS

Home | Current Version | Previous Version | Text Only | Print | Product List | Glossary On
Versions: 1 2 3 4 5 6 7 8 9 10 11 12 13 14
000
FTUS44 KEPZ 211754 AAA
TAFLRU
TAF AMD
KLRU 211754Z 2118/2218 16012G22KT P6SM SCT060
     FM212100 14013G22KT P6SM VCTS SCT070CB SCT120 BKN250
      TEMPO 2122/2202 VRB30G45KT 1/2SM +TSRAGS FEW010 OVC060CB
     FM220500 12012KT P6SM SCT100 BKN200=

USA.gov is the U.S. government's official web portal to all federal, state and local government web resources and services.